createdAt,value
2018-05-15T00:00:30.975Z,13.62
2018-05-15T00:02:59.370Z,13.62
2018-05-15T00:05:28.542Z,13.60
2018-05-15T00:07:56.934Z,13.55
2018-05-15T00:10:25.390Z,13.48
2018-05-15T00:12:53.773Z,13.43
2018-05-15T00:15:22.153Z,13.34
2018-05-15T00:17:50.581Z,13.27
2018-05-15T00:20:18.966Z,13.26
2018-05-15T00:22:47.425Z,13.13
2018-05-15T00:25:15.823Z,13.09
2018-05-15T00:27:44.217Z,13.00
2018-05-15T00:30:12.578Z,13.01
2018-05-15T00:32:40.962Z,12.91
2018-05-15T00:35:10.127Z,12.93
2018-05-15T00:37:38.502Z,12.93
2018-05-15T00:40:06.919Z,12.81
2018-05-15T00:42:35.337Z,12.86
2018-05-15T00:45:03.723Z,12.74
2018-05-15T00:47:32.090Z,12.73
2018-05-15T00:50:00.469Z,12.69
2018-05-15T00:52:28.845Z,12.67
2018-05-15T00:55:14.978Z,12.63
2018-05-15T00:57:43.360Z,12.52
2018-05-15T01:00:12.593Z,12.48
2018-05-15T01:02:40.993Z,12.44
2018-05-15T01:05:09.381Z,12.42
2018-05-15T01:07:37.789Z,12.37
2018-05-15T01:10:06.202Z,12.31
2018-05-15T01:12:34.603Z,12.27
2018-05-15T01:15:02.998Z,12.28
2018-05-15T01:17:31.399Z,12.43
2018-05-15T01:19:59.795Z,12.32
2018-05-15T01:22:28.217Z,12.45
2018-05-15T01:24:57.358Z,12.49
2018-05-15T01:27:25.790Z,12.47
2018-05-15T01:29:54.908Z,12.50
2018-05-15T01:32:23.310Z,12.42
2018-05-15T01:34:51.707Z,12.47
2018-05-15T01:37:20.130Z,12.49
2018-05-15T01:39:48.515Z,12.37
2018-05-15T01:42:16.915Z,12.25
2018-05-15T01:44:45.333Z,12.11
2018-05-15T01:47:13.805Z,12.03
2018-05-15T01:49:42.181Z,11.98
2018-05-15T01:52:10.573Z,11.98
2018-05-15T01:54:38.953Z,12.01
2018-05-15T01:57:07.353Z,11.98
2018-05-15T01:59:35.731Z,11.98
2018-05-15T02:02:04.149Z,11.94
2018-05-15T02:04:32.531Z,11.88
2018-05-15T02:07:00.910Z,11.81
2018-05-15T02:09:29.309Z,11.69
2018-05-15T02:11:57.755Z,11.60
2018-05-15T02:14:26.129Z,11.55
2018-05-15T02:16:54.521Z,11.51
2018-05-15T02:19:22.890Z,11.44
2018-05-15T02:21:51.351Z,11.41
2018-05-15T02:24:19.742Z,11.33
2018-05-15T02:26:48.114Z,11.28
2018-05-15T02:29:16.494Z,11.20
2018-05-15T02:31:45.628Z,11.19
2018-05-15T02:34:14.018Z,11.15
2018-05-15T02:36:42.419Z,11.09
2018-05-15T02:39:10.867Z,11.06
2018-05-15T02:41:39.238Z,11.14
2018-05-15T02:44:07.621Z,11.04
2018-05-15T02:46:36.020Z,11.03
2018-05-15T02:49:04.418Z,10.97
2018-05-15T02:51:32.822Z,10.92
2018-05-15T02:54:01.238Z,10.86
2018-05-15T02:56:30.414Z,10.81
2018-05-15T02:58:59.017Z,10.77
2018-05-15T03:01:28.283Z,10.71
2018-05-15T03:03:56.670Z,10.68
2018-05-15T03:06:25.846Z,10.60
2018-05-15T03:08:54.231Z,10.58
2018-05-15T03:11:22.614Z,10.54
2018-05-15T03:13:51.010Z,10.52
2018-05-15T03:16:19.414Z,10.49
2018-05-15T03:18:47.798Z,10.45
2018-05-15T03:21:16.194Z,10.41
2018-05-15T03:23:44.570Z,10.39
2018-05-15T03:26:12.945Z,10.31
2018-05-15T03:28:41.340Z,10.30
2018-05-15T03:31:09.732Z,10.33
2018-05-15T03:33:38.110Z,10.36
2018-05-15T03:36:06.505Z,10.42
2018-05-15T03:38:34.902Z,10.41
2018-05-15T03:41:04.096Z,10.47
2018-05-15T03:43:33.277Z,10.43
2018-05-15T03:46:01.653Z,10.47
2018-05-15T03:48:30.042Z,10.44
2018-05-15T03:50:58.423Z,10.35
2018-05-15T03:53:26.829Z,10.32
2018-05-15T03:55:56.016Z,10.27
2018-05-15T03:58:24.414Z,10.26
2018-05-15T04:01:11.221Z,10.30
2018-05-15T04:03:57.977Z,10.32
2018-05-15T04:06:44.142Z,10.36
2018-05-15T04:09:12.519Z,10.35
2018-05-15T04:11:40.914Z,10.35
2018-05-15T04:14:09.288Z,10.39
2018-05-15T04:16:37.877Z,10.43
2018-05-15T04:19:06.253Z,10.46
2018-05-15T04:21:34.659Z,10.45
2018-05-15T04:24:03.042Z,10.48
2018-05-15T04:26:32.206Z,10.47
2018-05-15T04:29:00.592Z,10.49
2018-05-15T04:31:29.767Z,10.53
2018-05-15T04:33:58.173Z,10.55
2018-05-15T04:36:27.383Z,10.56
2018-05-15T04:38:55.814Z,10.63
2018-05-15T04:41:24.197Z,10.69
2018-05-15T04:43:52.881Z,10.73
2018-05-15T04:46:21.012Z,10.81
2018-05-15T04:48:50.284Z,10.88
2018-05-15T04:51:18.677Z,10.95
2018-05-15T04:53:47.882Z,11.02
2018-05-15T04:56:17.061Z,11.12
2018-05-15T04:58:45.456Z,11.24
2018-05-15T05:01:13.918Z,11.35
2018-05-15T05:03:42.350Z,11.46
2018-05-15T05:06:11.500Z,11.57
2018-05-15T05:08:39.998Z,11.75
2018-05-15T05:11:08.383Z,11.93
2018-05-15T05:13:36.765Z,12.04
2018-05-15T05:16:05.150Z,12.15
2018-05-15T05:18:33.542Z,12.36
2018-05-15T05:21:01.996Z,12.55
2018-05-15T05:23:30.404Z,12.85
2018-05-15T05:25:58.816Z,13.02
2018-05-15T05:28:28.002Z,13.17
2018-05-15T05:30:56.382Z,13.46
2018-05-15T05:33:24.809Z,13.68
2018-05-15T05:35:53.155Z,14.07
2018-05-15T05:38:21.550Z,14.50
2018-05-15T05:40:50.681Z,14.90
2018-05-15T05:43:19.069Z,15.26
2018-05-15T05:45:47.492Z,15.47
2018-05-15T05:48:16.734Z,15.77
2018-05-15T05:50:45.130Z,15.89
2018-05-15T05:53:13.561Z,16.13
2018-05-15T05:55:41.977Z,16.49
2018-05-15T05:58:11.153Z,16.77
2018-05-15T06:00:39.526Z,16.97
2018-05-15T06:03:07.934Z,17.07
2018-05-15T06:05:37.114Z,17.31
2018-05-15T06:08:05.498Z,17.38
2018-05-15T06:10:33.887Z,17.35
2018-05-15T06:13:02.274Z,17.54
2018-05-15T06:15:30.650Z,17.86
2018-05-15T06:17:59.102Z,17.98
2018-05-15T06:20:27.495Z,18.06
2018-05-15T06:22:55.883Z,18.33
2018-05-15T06:25:24.261Z,18.56
2018-05-15T06:27:52.717Z,18.77
2018-05-15T06:30:21.085Z,18.92
2018-05-15T06:32:50.280Z,19.21
2018-05-15T06:35:18.596Z,19.37
2018-05-15T06:37:46.977Z,19.61
2018-05-15T06:40:15.337Z,19.98
2018-05-15T06:42:43.805Z,20.08
2018-05-15T06:45:12.937Z,19.92
2018-05-15T06:47:41.338Z,19.69
2018-05-15T06:50:09.801Z,20.02
2018-05-15T06:52:38.281Z,19.97
2018-05-15T06:55:06.643Z,19.78
2018-05-15T06:57:35.844Z,20.04
2018-05-15T07:00:04.193Z,21.03
2018-05-15T07:02:32.566Z,21.88
2018-05-15T07:05:00.929Z,23.09
2018-05-15T07:07:29.434Z,23.71
2018-05-15T07:09:57.882Z,24.95
2018-05-15T07:12:26.271Z,24.16
2018-05-15T07:14:54.653Z,24.28
2018-05-15T07:17:23.054Z,23.73
2018-05-15T07:19:51.415Z,25.92
2018-05-15T07:22:19.798Z,25.18
2018-05-15T07:24:48.187Z,25.23
2018-05-15T07:27:16.656Z,25.72
2018-05-15T07:29:44.939Z,27.47
2018-05-15T07:32:14.106Z,27.71
2018-05-15T07:34:42.481Z,26.95
2018-05-15T07:37:10.882Z,26.87
2018-05-15T07:39:39.273Z,26.72
2018-05-15T07:42:08.444Z,28.00
2018-05-15T07:44:36.914Z,26.26
2018-05-15T07:47:05.283Z,27.31
2018-05-15T07:49:33.685Z,27.86
2018-05-15T07:52:02.090Z,28.46
2018-05-15T07:54:30.478Z,28.14
2018-05-15T07:56:58.849Z,27.10
2018-05-15T07:59:27.245Z,27.75
2018-05-15T08:01:55.625Z,28.10
2018-05-15T08:04:24.082Z,28.38
2018-05-15T08:06:52.368Z,27.77
2018-05-15T08:09:20.758Z,27.79
2018-05-15T08:11:49.142Z,27.59
2018-05-15T08:14:17.519Z,27.90
2018-05-15T08:16:45.945Z,28.27
2018-05-15T08:19:15.115Z,29.65
2018-05-15T08:21:43.476Z,28.02
2018-05-15T08:24:11.839Z,27.86
2018-05-15T08:26:40.289Z,27.86
2018-05-15T08:29:09.440Z,28.01
2018-05-15T08:31:37.806Z,27.89
2018-05-15T08:34:06.193Z,28.66
2018-05-15T08:36:34.573Z,29.61
2018-05-15T08:39:02.965Z,29.75
2018-05-15T08:41:31.337Z,30.29
2018-05-15T08:43:59.798Z,31.61
2018-05-15T08:46:28.277Z,31.14
2018-05-15T08:48:57.632Z,31.20
2018-05-15T08:51:26.022Z,30.27
2018-05-15T08:53:54.414Z,29.85
2018-05-15T08:56:22.789Z,29.96
2018-05-15T08:58:51.255Z,32.63
2018-05-15T09:01:19.681Z,30.44
2018-05-15T09:03:48.058Z,31.09
2018-05-15T09:06:16.415Z,33.31
2018-05-15T09:08:44.809Z,33.19
2018-05-15T09:11:13.182Z,31.08
2018-05-15T09:13:41.546Z,32.76
2018-05-15T09:16:09.931Z,32.33
2018-05-15T09:18:38.334Z,32.09
2018-05-15T09:21:06.716Z,30.69
2018-05-15T09:23:35.089Z,31.76
2018-05-15T09:26:03.461Z,31.24
2018-05-15T09:28:31.946Z,31.51
2018-05-15T09:31:00.365Z,30.50
2018-05-15T09:33:28.753Z,31.39
2018-05-15T09:35:57.134Z,30.45
2018-05-15T09:38:25.500Z,30.85
2018-05-15T09:40:53.882Z,31.39
2018-05-15T09:46:38.470Z,31.06
2018-05-15T09:49:06.847Z,29.10
2018-05-15T09:51:35.254Z,28.56
2018-05-15T09:54:04.437Z,28.17
2018-05-15T09:56:32.797Z,28.34
2018-05-15T09:59:01.185Z,29.82
2018-05-15T10:01:29.574Z,31.03
2018-05-15T10:03:58.020Z,31.12
2018-05-15T10:06:26.381Z,29.93
2018-05-15T10:08:55.545Z,29.25
2018-05-15T10:11:23.938Z,28.43
2018-05-15T10:13:52.358Z,27.95
2018-05-15T10:16:20.734Z,29.47
2018-05-15T10:18:49.889Z,29.71
2018-05-15T10:21:18.282Z,31.03
2018-05-15T10:23:46.676Z,30.13
2018-05-15T10:26:15.177Z,31.38
2018-05-15T10:28:44.236Z,29.46
2018-05-15T10:31:12.633Z,29.67
2018-05-15T10:33:41.072Z,30.74
2018-05-15T10:36:09.462Z,31.06
2018-05-15T10:38:37.798Z,32.56
2018-05-15T10:41:06.166Z,32.20
2018-05-15T10:43:34.550Z,31.44
2018-05-15T10:46:02.991Z,32.16
2018-05-15T10:48:31.442Z,31.94
2018-05-15T10:50:59.837Z,30.65
2018-05-15T10:53:28.985Z,29.86
2018-05-15T10:55:57.370Z,29.89
2018-05-15T10:58:25.758Z,29.95
2018-05-15T11:00:54.133Z,30.56
2018-05-15T11:03:22.505Z,28.99
2018-05-15T11:05:50.882Z,29.55
2018-05-15T11:08:19.329Z,31.07
2018-05-15T11:10:48.465Z,31.39
2018-05-15T11:13:16.927Z,29.12
2018-05-15T11:15:45.311Z,28.00
2018-05-15T11:18:49.741Z,27.39
2018-05-15T11:21:35.921Z,26.36
2018-05-15T11:27:05.557Z,26.40
2018-05-15T11:29:33.965Z,28.11
2018-05-15T11:32:02.350Z,28.90
2018-05-15T11:34:30.732Z,29.77
2018-05-15T11:36:59.134Z,27.66
2018-05-15T11:39:27.517Z,26.56
2018-05-15T11:41:55.958Z,26.18
2018-05-15T11:44:24.281Z,25.87
2018-05-15T11:46:52.688Z,25.63
2018-05-15T11:49:22.757Z,25.64
2018-05-15T11:51:51.119Z,24.59
2018-05-15T11:54:18.632Z,25.37
2018-05-15T11:56:47.022Z,25.10
2018-05-15T11:59:15.387Z,24.87
2018-05-15T12:01:43.937Z,25.30
2018-05-15T12:04:12.523Z,25.17
2018-05-15T12:06:40.898Z,24.80
2018-05-15T12:09:09.341Z,25.33
2018-05-15T12:11:37.697Z,26.88
2018-05-15T12:14:06.086Z,26.08
2018-05-15T12:16:34.471Z,25.93
2018-05-15T12:19:02.850Z,25.02
2018-05-15T12:21:31.226Z,24.54
2018-05-15T12:23:59.619Z,24.68
2018-05-15T12:26:27.995Z,24.61
2018-05-15T12:28:56.382Z,26.71
2018-05-15T12:31:24.773Z,28.33
2018-05-15T12:33:53.149Z,29.83
2018-05-15T12:36:22.318Z,28.62
2018-05-15T12:38:50.682Z,28.09
2018-05-15T12:41:19.155Z,27.52
2018-05-15T12:43:47.443Z,27.33
2018-05-15T12:46:15.991Z,26.57
2018-05-15T12:48:44.457Z,25.78
2018-05-15T12:51:12.802Z,25.62
2018-05-15T12:53:41.179Z,25.32
2018-05-15T12:56:10.348Z,25.37
2018-05-15T12:58:38.753Z,26.71
2018-05-15T13:01:07.954Z,27.55
2018-05-15T13:03:37.115Z,28.39
2018-05-15T13:06:05.573Z,29.90
2018-05-15T13:08:33.975Z,30.46
2018-05-15T13:11:02.404Z,30.36
2018-05-15T13:13:30.815Z,30.99
2018-05-15T13:15:59.190Z,30.77
2018-05-15T13:18:28.454Z,29.46
2018-05-15T13:20:56.738Z,31.32
2018-05-15T13:23:25.128Z,31.74
2018-05-15T13:25:53.507Z,32.23
2018-05-15T13:28:22.098Z,32.37
2018-05-15T13:30:50.494Z,33.76
2018-05-15T13:33:18.866Z,31.20
2018-05-15T13:35:47.365Z,30.21
2018-05-15T13:38:16.601Z,28.01
2018-05-15T13:40:44.995Z,28.24
2018-05-15T13:43:13.473Z,27.16
2018-05-15T13:45:41.857Z,28.43
2018-05-15T13:48:10.261Z,29.75
2018-05-15T13:50:38.752Z,29.71
2018-05-15T13:53:07.115Z,30.63
2018-05-15T13:55:35.498Z,31.13
2018-05-15T13:58:03.885Z,31.37
2018-05-15T14:00:32.281Z,32.95
2018-05-15T14:03:00.657Z,31.64
2018-05-15T14:05:29.063Z,29.32
2018-05-15T14:07:57.551Z,28.68
2018-05-15T14:10:25.956Z,26.61
2018-05-15T14:12:55.181Z,25.86
2018-05-15T14:15:23.692Z,26.03
2018-05-15T14:17:52.062Z,26.16
2018-05-15T14:20:21.430Z,27.64
2018-05-15T14:22:50.559Z,28.82
2018-05-15T14:25:18.950Z,29.99
2018-05-15T14:27:47.339Z,31.45
2018-05-15T14:30:15.726Z,31.31
2018-05-15T14:32:44.110Z,31.32
2018-05-15T14:35:12.511Z,31.27
2018-05-15T14:37:41.653Z,30.58
2018-05-15T14:40:10.810Z,28.85
2018-05-15T14:42:56.861Z,27.50
2018-05-15T14:45:25.237Z,26.15
2018-05-15T14:47:53.628Z,25.60
2018-05-15T14:50:22.005Z,25.12
2018-05-15T14:52:50.622Z,25.10
2018-05-15T14:55:19.052Z,25.05
2018-05-15T14:57:47.439Z,25.34
2018-05-15T15:00:15.911Z,25.85
2018-05-15T15:02:44.306Z,26.55
2018-05-15T15:05:12.871Z,27.70
2018-05-15T15:07:41.255Z,28.51
2018-05-15T15:10:09.650Z,29.80
2018-05-15T15:12:38.870Z,28.78
2018-05-15T15:15:08.145Z,27.25
2018-05-15T15:17:36.582Z,26.66
2018-05-15T15:20:05.077Z,25.52
2018-05-15T15:22:33.532Z,25.02
2018-05-15T15:25:02.839Z,25.11
2018-05-15T15:27:31.985Z,25.84
2018-05-15T15:30:00.381Z,27.70
2018-05-15T15:32:28.801Z,29.65
2018-05-15T15:34:57.973Z,30.31
2018-05-15T15:37:26.387Z,30.27
2018-05-15T15:39:55.521Z,30.50
2018-05-15T15:42:24.069Z,29.50
2018-05-15T15:44:52.396Z,28.99
2018-05-15T15:47:20.803Z,28.55
2018-05-15T15:49:49.192Z,27.85
2018-05-15T15:52:17.690Z,27.34
2018-05-15T15:54:46.850Z,26.89
2018-05-15T15:57:15.255Z,26.87
2018-05-15T15:59:43.666Z,26.16
2018-05-15T16:02:13.601Z,26.32
2018-05-15T16:04:42.746Z,25.85
2018-05-15T16:07:11.167Z,26.63
2018-05-15T16:09:41.054Z,26.86
2018-05-15T16:12:09.464Z,26.88
2018-05-15T16:14:37.840Z,26.88
2018-05-15T16:17:07.048Z,26.24
2018-05-15T16:19:35.601Z,25.36
2018-05-15T16:22:04.139Z,24.85
2018-05-15T16:24:32.466Z,24.59
2018-05-15T16:27:00.861Z,24.57
2018-05-15T16:29:29.238Z,24.32
2018-05-15T16:31:57.614Z,24.29
2018-05-15T16:34:26.053Z,24.19
2018-05-15T16:36:55.197Z,24.56
2018-05-15T16:39:23.577Z,24.61
2018-05-15T16:41:51.994Z,24.89
2018-05-15T16:44:20.470Z,24.79
2018-05-15T16:46:48.874Z,24.59
2018-05-15T16:49:17.258Z,24.66
2018-05-15T16:51:45.717Z,24.43
2018-05-15T16:54:14.088Z,24.67
2018-05-15T16:56:42.547Z,24.61
2018-05-15T16:59:10.933Z,24.76
2018-05-15T17:01:39.329Z,24.74
2018-05-15T17:04:07.741Z,24.74
2018-05-15T17:06:36.131Z,24.94
2018-05-15T17:09:06.822Z,24.90
2018-05-15T17:11:35.205Z,24.61
2018-05-15T17:14:03.598Z,24.20
2018-05-15T17:16:31.979Z,24.47
2018-05-15T17:19:00.404Z,24.36
2018-05-15T17:21:28.913Z,24.19
2018-05-15T17:23:58.066Z,24.19
2018-05-15T17:26:26.447Z,24.25
2018-05-15T17:28:54.856Z,24.07
2018-05-15T17:31:23.315Z,23.90
2018-05-15T17:33:51.676Z,23.77
2018-05-15T17:36:20.073Z,23.72
2018-05-15T17:38:48.634Z,23.47
2018-05-15T17:41:17.790Z,23.33
2018-05-15T17:43:46.331Z,23.45
2018-05-15T17:46:14.720Z,23.54
2018-05-15T17:48:43.150Z,23.36
2018-05-15T17:51:11.588Z,23.45
2018-05-15T17:53:40.008Z,23.55
2018-05-15T17:56:08.410Z,23.53
2018-05-15T17:58:36.835Z,23.55
2018-05-15T18:01:05.273Z,23.57
2018-05-15T18:03:33.769Z,23.39
2018-05-15T18:06:02.183Z,23.33
2018-05-15T18:08:30.584Z,23.14
2018-05-15T18:10:58.989Z,22.96
2018-05-15T18:13:27.366Z,22.84
2018-05-15T18:15:55.826Z,22.74
2018-05-15T18:18:24.217Z,22.69
2018-05-15T18:20:52.613Z,22.58
2018-05-15T18:23:21.013Z,22.75
2018-05-15T18:25:49.398Z,22.51
2018-05-15T18:28:17.793Z,22.26
2018-05-15T18:30:46.209Z,22.16
2018-05-15T18:33:15.432Z,22.07
2018-05-15T18:35:44.780Z,21.94
2018-05-15T18:38:13.323Z,21.84
2018-05-15T18:40:41.752Z,21.92
2018-05-15T18:43:10.230Z,21.79
2018-05-15T18:45:38.612Z,21.60
2018-05-15T18:48:07.041Z,21.46
2018-05-15T18:50:36.248Z,21.42
2018-05-15T18:53:05.398Z,21.26
2018-05-15T18:55:33.782Z,21.29
2018-05-15T18:58:02.226Z,21.04
2018-05-15T19:00:30.671Z,20.81
2018-05-15T19:02:59.078Z,20.62
2018-05-15T19:05:28.251Z,20.49
2018-05-15T19:07:56.681Z,20.33
2018-05-15T19:10:25.072Z,20.27
2018-05-15T19:13:25.937Z,20.12
2018-05-15T19:15:54.322Z,19.96
2018-05-15T19:18:22.748Z,19.86
2018-05-15T19:20:51.139Z,19.76
2018-05-15T19:23:19.520Z,19.61
2018-05-15T19:25:47.977Z,19.36
2018-05-15T19:28:16.389Z,19.19
2018-05-15T19:30:44.798Z,19.04
2018-05-15T19:33:17.071Z,18.86
2018-05-15T19:35:46.206Z,18.68
2018-05-15T19:38:14.749Z,18.50
2018-05-15T19:40:51.302Z,18.42
2018-05-15T19:43:19.669Z,18.34
2018-05-15T19:45:48.845Z,18.41
2018-05-15T19:48:17.230Z,18.37
2018-05-15T19:50:46.403Z,18.29
2018-05-15T19:53:14.788Z,18.13
2018-05-15T19:55:43.182Z,18.03
2018-05-15T19:58:11.606Z,17.86
2018-05-15T20:00:40.793Z,17.73
2018-05-15T20:03:09.304Z,17.86
2018-05-15T20:05:37.676Z,17.74
2018-05-15T20:08:06.164Z,17.62
2018-05-15T20:10:35.314Z,17.53
2018-05-15T20:13:03.713Z,17.40
2018-05-15T20:15:32.178Z,17.29
2018-05-15T20:18:00.605Z,17.20
2018-05-15T20:20:29.769Z,17.14
2018-05-15T20:22:58.189Z,17.05
2018-05-15T20:25:27.334Z,16.97
2018-05-15T20:27:55.800Z,16.89
2018-05-15T20:30:24.243Z,16.81
2018-05-15T20:32:54.152Z,16.78
2018-05-15T20:35:22.569Z,16.70
2018-05-15T20:37:51.761Z,16.56
2018-05-15T20:40:20.926Z,16.43
2018-05-15T20:42:49.318Z,16.31
2018-05-15T20:45:17.725Z,16.18
2018-05-15T20:47:47.647Z,16.05
2018-05-15T20:50:16.803Z,16.02
2018-05-15T20:52:45.208Z,15.88
2018-05-15T20:55:13.619Z,15.81
2018-05-15T20:57:42.767Z,15.80
2018-05-15T21:00:11.146Z,15.70
2018-05-15T21:02:39.649Z,15.64
2018-05-15T21:05:08.063Z,15.56
2018-05-15T21:07:37.217Z,15.51
2018-05-15T21:10:05.699Z,15.41
2018-05-15T21:12:34.119Z,15.33
2018-05-15T21:15:02.516Z,15.25
2018-05-15T21:17:31.014Z,15.24
2018-05-15T21:19:59.418Z,15.22
2018-05-15T21:22:27.817Z,15.14
2018-05-15T21:24:56.342Z,15.09
2018-05-15T21:27:24.878Z,15.04
2018-05-15T21:29:53.273Z,14.97
2018-05-15T21:32:21.662Z,14.91
2018-05-15T21:34:50.102Z,14.82
2018-05-15T21:37:19.286Z,14.73
2018-05-15T21:39:47.702Z,14.70
2018-05-15T21:42:16.304Z,14.59
2018-05-15T21:44:44.955Z,14.55
2018-05-15T21:47:13.381Z,14.53
2018-05-15T21:49:42.509Z,14.49
2018-05-15T21:52:10.914Z,14.45
2018-05-15T21:54:39.333Z,14.42
2018-05-15T21:57:07.727Z,14.39
2018-05-15T21:59:36.119Z,14.35
2018-05-15T22:02:04.510Z,14.36
2018-05-15T22:04:32.898Z,14.32
2018-05-15T22:07:01.325Z,14.29
2018-05-15T22:09:29.698Z,14.28
2018-05-15T22:12:15.974Z,14.26
2018-05-15T22:15:02.110Z,14.26
2018-05-15T22:17:48.198Z,14.26
2018-05-15T22:20:34.303Z,14.31
2018-05-15T22:23:01.830Z,14.39
2018-05-15T22:25:31.123Z,14.51
2018-05-15T22:27:59.526Z,14.62
2018-05-15T22:30:28.850Z,14.72
2018-05-15T22:32:57.247Z,14.78
2018-05-15T22:35:25.823Z,14.86
2018-05-15T22:37:54.225Z,14.91
2018-05-15T22:40:22.637Z,14.96
2018-05-15T22:42:51.026Z,14.98
2018-05-15T22:45:19.417Z,15.02
2018-05-15T22:47:47.791Z,15.04
2018-05-15T22:50:16.169Z,15.06
2018-05-15T22:52:44.581Z,15.11
2018-05-15T22:55:13.752Z,15.13
2018-05-15T22:57:42.163Z,15.12
2018-05-15T23:00:11.334Z,15.12
2018-05-15T23:02:39.723Z,15.10
2018-05-15T23:05:08.129Z,15.12
2018-05-15T23:07:37.263Z,15.12
2018-05-15T23:10:05.734Z,15.08
2018-05-15T23:12:34.118Z,15.09
2018-05-15T23:15:02.500Z,15.20
2018-05-15T23:17:30.954Z,15.22
2018-05-15T23:20:00.106Z,15.25
2018-05-15T23:22:42.179Z,15.33
2018-05-15T23:25:10.570Z,15.41
2018-05-15T23:27:38.958Z,15.48
2018-05-15T23:30:07.445Z,15.59
2018-05-15T23:32:35.842Z,15.59
2018-05-15T23:35:04.218Z,15.59
2018-05-15T23:37:32.594Z,15.61
2018-05-15T23:40:01.003Z,15.61
2018-05-15T23:42:29.381Z,15.65
2018-05-15T23:44:57.789Z,15.72
2018-05-15T23:47:26.219Z,15.72
2018-05-15T23:49:54.617Z,15.76
2018-05-15T23:52:23.069Z,15.75
2018-05-15T23:54:52.260Z,16.01
2018-05-15T23:57:21.442Z,16.12
2018-05-15T23:59:49.833Z,16.28
